Time,TemperatureF,DewpointF,PressureIn,WindDirection,WindDirectionDegrees,WindSpeedMPH,WindSpeedGustMPH,Humidity,HourlyPrecipIn,Conditions,Clouds,dailyrainin,SolarRadiationWatts/m^2,SoftwareType,DateUTC
2013-10-14 00:09:00,40.8,27.0,31.84,NNE,26,3.0,10.0,58,0.00,,,0.00,0,weatherlink.com 1.10,2013-10-14 06:09:00,
2013-10-14 00:24:00,40.6,27.0,31.84,North,5,3.0,7.0,59,0.00,,,0.00,0,weatherlink.com 1.10,2013-10-14 06:24:00,
2013-10-14 00:39:00,41.1,28.0,31.84,NE,42,3.0,9.0,59,0.00,,,0.00,0,weatherlink.com 1.10,2013-10-14 06:39:00,
2013-10-14 00:54:00,41.0,28.0,31.84,North,5,7.0,8.0,60,0.00,,,0.00,0,weatherlink.com 1.10,2013-10-14 06:54:00,
2013-10-14 01:09:00,41.0,28.0,31.84,North,5,3.0,8.0,60,0.00,,,0.00,0,weatherlink.com 1.10,2013-10-14 07:09:00,
2013-10-14 01:24:00,40.8,28.0,31.84,ENE,61,1.0,8.0,61,0.00,,,0.00,0,weatherlink.com 1.10,2013-10-14 07:24:00,
2013-10-14 01:39:00,40.7,28.0,31.84,North,5,4.0,6.0,62,0.00,,,0.00,0,weatherlink.com 1.10,2013-10-14 07:39:00,
2013-10-14 01:54:00,40.4,29.0,31.84,NNE,13,4.0,8.0,63,0.00,,,0.00,0,weatherlink.com 1.10,2013-10-14 07:54:00,
2013-10-14 02:09:00,40.5,29.0,31.84,NNE,24,5.0,8.0,63,0.00,,,0.00,0,weatherlink.com 1.10,2013-10-14 08:09:00,
2013-10-14 02:24:00,40.7,29.0,31.85,NNE,23,4.0,12.0,64,0.00,,,0.00,0,weatherlink.com 1.10,2013-10-14 08:24:00,
2013-10-14 02:39:00,40.6,29.0,31.84,North,11,5.0,10.0,64,0.00,,,0.00,0,weatherlink.com 1.10,2013-10-14 08:39:00,
2013-10-14 02:54:00,40.7,29.0,31.85,NNE,16,6.0,11.0,63,0.00,,,0.00,0,weatherlink.com 1.10,2013-10-14 08:54:00,
2013-10-14 03:09:00,40.8,29.0,31.85,NNE,22,5.0,8.0,63,0.00,,,0.00,0,weatherlink.com 1.10,2013-10-14 09:09:00,
2013-10-14 03:24:00,40.6,29.0,31.85,North,11,2.0,5.0,63,0.00,,,0.00,0,weatherlink.com 1.10,2013-10-14 09:24:00,
2013-10-14 03:39:00,40.5,29.0,31.85,NNE,15,2.0,5.0,64,0.00,,,0.00,0,weatherlink.com 1.10,2013-10-14 09:39:00,
2013-10-14 03:54:00,40.3,29.0,31.85,NNE,23,1.0,5.0,64,0.00,,,0.00,0,weatherlink.com 1.10,2013-10-14 09:54:00,
2013-10-14 04:09:00,39.8,29.0,31.85,North,355,2.0,4.0,65,0.00,,,0.00,0,weatherlink.com 1.10,2013-10-14 10:09:00,
2013-10-14 04:24:00,39.1,29.0,31.85,North,355,1.0,3.0,67,0.00,,,0.00,0,weatherlink.com 1.10,2013-10-14 10:24:00,
2013-10-14 04:39:00,38.8,29.0,31.85,North,355,2.0,3.0,68,0.00,,,0.00,0,weatherlink.com 1.10,2013-10-14 10:39:00,
2013-10-14 04:54:00,38.8,29.0,31.86,North,355,0.0,3.0,68,0.00,,,0.00,0,weatherlink.com 1.10,2013-10-14 10:54:00,
2013-10-14 05:09:00,38.4,29.0,31.86,North,355,2.0,4.0,69,0.00,,,0.00,0,weatherlink.com 1.10,2013-10-14 11:09:00,
2013-10-14 05:24:00,38.1,29.0,31.86,North,360,2.0,5.0,69,0.00,,,0.00,0,weatherlink.com 1.10,2013-10-14 11:24:00,
2013-10-14 05:39:00,37.9,29.0,31.86,North,360,2.0,4.0,70,0.00,,,0.00,0,weatherlink.com 1.10,2013-10-14 11:39:00,
2013-10-14 05:54:00,37.9,29.0,31.86,North,360,4.0,5.0,70,0.00,,,0.00,0,weatherlink.com 1.10,2013-10-14 11:54:00,
2013-10-14 06:09:00,38.0,29.0,31.86,North,5,2.0,4.0,69,0.00,,,0.00,0,weatherlink.com 1.10,2013-10-14 12:09:00,
2013-10-14 06:24:00,38.0,29.0,31.87,North,5,3.0,5.0,70,0.00,,,0.00,0,weatherlink.com 1.10,2013-10-14 12:24:00,
2013-10-14 06:39:00,38.1,28.0,31.87,NNE,33,5.0,6.0,68,0.00,,,0.00,0,weatherlink.com 1.10,2013-10-14 12:39:00,
2013-10-14 06:54:00,38.7,28.0,31.88,North,11,4.0,5.0,66,0.00,,,0.00,0,weatherlink.com 1.10,2013-10-14 12:54:00,
2013-10-14 07:09:00,38.5,28.0,31.88,NNW,340,5.0,5.0,66,0.00,,,0.00,0,weatherlink.com 1.10,2013-10-14 13:09:00,
2013-10-14 07:24:00,38.4,28.0,31.88,NNW,340,2.0,4.0,67,0.00,,,0.00,0,weatherlink.com 1.10,2013-10-14 13:24:00,
2013-10-14 07:39:00,38.4,28.0,31.89,NNW,348,1.0,5.0,67,0.00,,,0.00,0,weatherlink.com 1.10,2013-10-14 13:39:00,
2013-10-14 07:54:00,38.7,29.0,31.90,NNW,347,2.0,6.0,67,0.00,,,0.00,0,weatherlink.com 1.10,2013-10-14 13:54:00,
2013-10-14 08:10:00,38.2,28.0,31.90,NNW,335,2.0,5.0,67,0.00,,,0.00,11,weatherlink.com 1.10,2013-10-14 14:10:00,
2013-10-14 08:25:00,37.7,28.0,31.90,NNW,335,0.0,3.0,69,0.00,,,0.00,25,weatherlink.com 1.10,2013-10-14 14:25:00,
2013-10-14 08:40:00,37.3,28.0,31.91,NNW,335,0.0,3.0,69,0.00,,,0.00,35,weatherlink.com 1.10,2013-10-14 14:40:00,
2013-10-14 08:55:00,37.5,29.0,31.91,NNW,338,2.0,4.0,70,0.00,,,0.00,53,weatherlink.com 1.10,2013-10-14 14:55:00,
2013-10-14 09:10:00,37.1,28.0,31.92,NNW,338,2.0,3.0,71,0.00,,,0.00,56,weatherlink.com 1.10,2013-10-14 15:10:00,
2013-10-14 09:25:00,37.3,29.0,31.92,NNW,338,2.0,3.0,71,0.00,,,0.00,123,weatherlink.com 1.10,2013-10-14 15:25:00,
2013-10-14 09:40:00,38.7,29.0,31.92,NNW,338,2.0,4.0,69,0.00,,,0.00,163,weatherlink.com 1.10,2013-10-14 15:40:00,
2013-10-14 09:55:00,39.6,30.0,31.92,NNW,338,2.0,3.0,68,0.00,,,0.00,213,weatherlink.com 1.10,2013-10-14 15:55:00,
2013-10-14 10:10:00,40.1,30.0,31.93,NNW,338,1.0,3.0,68,0.00,,,0.00,251,weatherlink.com 1.10,2013-10-14 16:10:00,
2013-10-14 10:25:00,40.7,30.0,31.93,NNW,338,2.0,5.0,67,0.00,,,0.00,294,weatherlink.com 1.10,2013-10-14 16:25:00,
2013-10-14 10:40:00,41.4,31.0,31.93,NNW,329,0.0,4.0,66,0.00,,,0.00,322,weatherlink.com 1.10,2013-10-14 16:40:00,
2013-10-14 10:55:00,42.6,31.0,31.92,NNW,331,3.0,5.0,65,0.00,,,0.00,373,weatherlink.com 1.10,2013-10-14 16:55:00,
2013-10-14 11:10:00,41.4,31.0,31.92,North,349,1.0,6.0,67,0.00,,,0.00,77,weatherlink.com 1.10,2013-10-14 17:10:00,
2013-10-14 11:25:00,40.8,31.0,31.92,North,355,2.0,5.0,68,0.00,,,0.00,102,weatherlink.com 1.10,2013-10-14 17:25:00,
2013-10-14 11:40:00,41.6,31.0,31.93,North,360,4.0,7.0,66,0.00,,,0.00,127,weatherlink.com 1.10,2013-10-14 17:40:00,
2013-10-14 11:55:00,42.0,31.0,31.93,North,355,2.0,8.0,66,0.00,,,0.00,181,weatherlink.com 1.10,2013-10-14 17:55:00,
2013-10-14 12:10:00,42.6,31.0,31.93,NNW,346,7.0,9.0,64,0.00,,,0.00,190,weatherlink.com 1.10,2013-10-14 18:10:00,
2013-10-14 12:25:00,43.1,30.0,31.93,North,5,5.0,9.0,61,0.00,,,0.00,178,weatherlink.com 1.10,2013-10-14 18:25:00,
2013-10-14 12:40:00,43.6,30.0,31.93,NNW,340,5.0,7.0,59,0.00,,,0.00,160,weatherlink.com 1.10,2013-10-14 18:40:00,
2013-10-14 12:55:00,43.9,29.0,31.93,NNW,342,4.0,7.0,57,0.00,,,0.00,144,weatherlink.com 1.10,2013-10-14 18:55:00,
2013-10-14 13:10:00,43.9,31.0,31.93,NNW,339,4.0,9.0,60,0.00,,,0.00,137,weatherlink.com 1.10,2013-10-14 19:10:00,
2013-10-14 13:25:00,44.3,31.0,31.93,NNW,346,6.0,8.0,59,0.00,,,0.00,163,weatherlink.com 1.10,2013-10-14 19:25:00,
2013-10-14 13:40:00,44.6,29.0,31.93,NNW,336,4.0,9.0,55,0.00,,,0.00,185,weatherlink.com 1.10,2013-10-14 19:40:00,
2013-10-14 13:55:00,45.1,28.0,31.92,North,5,5.0,10.0,51,0.00,,,0.00,214,weatherlink.com 1.10,2013-10-14 19:55:00,
2013-10-14 14:10:00,45.6,31.0,31.93,North,355,5.0,7.0,57,0.00,,,0.00,218,weatherlink.com 1.10,2013-10-14 20:10:00,
2013-10-14 14:25:00,45.6,31.0,31.92,NNW,329,7.0,10.0,57,0.00,,,0.00,237,weatherlink.com 1.10,2013-10-14 20:25:00,
2013-10-14 14:41:00,45.9,30.0,31.92,NNW,327,9.0,11.0,55,0.00,,,0.00,316,weatherlink.com 1.10,2013-10-14 20:41:00,
2013-10-14 14:56:00,47.6,31.0,31.92,North,360,9.0,13.0,54,0.00,,,0.00,603,weatherlink.com 1.10,2013-10-14 20:56:00,
2013-10-14 15:11:00,46.0,30.0,31.92,NNW,342,7.0,13.0,53,0.00,,,0.00,151,weatherlink.com 1.10,2013-10-14 21:11:00,
2013-10-14 15:26:00,44.9,30.0,31.92,NNE,18,4.0,9.0,56,0.00,,,0.00,142,weatherlink.com 1.10,2013-10-14 21:26:00,
2013-10-14 15:41:00,44.6,30.0,31.92,NNE,22,2.0,9.0,56,0.00,,,0.00,149,weatherlink.com 1.10,2013-10-14 21:41:00,
2013-10-14 15:56:00,44.7,29.0,31.93,NNE,21,5.0,8.0,55,0.00,,,0.00,174,weatherlink.com 1.10,2013-10-14 21:56:00,
2013-10-14 16:11:00,44.5,29.0,31.93,NE,56,1.0,7.0,54,0.00,,,0.00,186,weatherlink.com 1.10,2013-10-14 22:11:00,
2013-10-14 16:26:00,45.1,29.0,31.93,NE,46,3.0,7.0,53,0.00,,,0.00,193,weatherlink.com 1.10,2013-10-14 22:26:00,
2013-10-14 16:41:00,45.5,29.0,31.93,NNW,343,6.0,8.0,52,0.00,,,0.00,202,weatherlink.com 1.10,2013-10-14 22:41:00,
2013-10-14 16:56:00,45.3,27.0,31.93,NNW,348,4.0,9.0,50,0.00,,,0.00,134,weatherlink.com 1.10,2013-10-14 22:56:00,
2013-10-14 17:11:00,44.6,26.0,31.92,North,5,6.0,10.0,49,0.00,,,0.00,88,weatherlink.com 1.10,2013-10-14 23:11:00,
2013-10-14 17:26:00,44.1,27.0,31.93,North,350,5.0,9.0,51,0.00,,,0.00,76,weatherlink.com 1.10,2013-10-14 23:26:00,
2013-10-14 17:41:00,44.2,27.0,31.93,North,355,3.0,6.0,52,0.00,,,0.00,118,weatherlink.com 1.10,2013-10-14 23:41:00,
2013-10-14 17:56:00,44.6,27.0,31.93,North,11,5.0,7.0,51,0.00,,,0.00,76,weatherlink.com 1.10,2013-10-14 23:56:00,
2013-10-14 18:11:00,44.2,28.0,31.93,North,11,2.0,6.0,54,0.00,,,0.00,42,weatherlink.com 1.10,2013-10-15 00:11:00,
2013-10-14 18:26:00,43.4,28.0,31.93,NNE,16,6.0,6.0,55,0.00,,,0.00,21,weatherlink.com 1.10,2013-10-15 00:26:00,
2013-10-14 18:41:00,42.7,28.0,31.94,NNE,13,2.0,6.0,56,0.00,,,0.00,12,weatherlink.com 1.10,2013-10-15 00:41:00,
2013-10-14 18:56:00,41.9,28.0,31.94,NNE,17,4.0,6.0,59,0.00,,,0.00,0,weatherlink.com 1.10,2013-10-15 00:56:00,
2013-10-14 19:11:00,41.8,28.0,31.94,NNE,25,3.0,7.0,59,0.00,,,0.00,0,weatherlink.com 1.10,2013-10-15 01:11:00,
2013-10-14 19:26:00,41.6,28.0,31.95,NNE,15,7.0,8.0,60,0.00,,,0.00,0,weatherlink.com 1.10,2013-10-15 01:26:00,
2013-10-14 19:41:00,41.4,28.0,31.95,NE,36,1.0,4.0,60,0.00,,,0.00,0,weatherlink.com 1.10,2013-10-15 01:41:00,
2013-10-14 19:56:00,41.9,29.0,31.95,East,90,5.0,9.0,60,0.00,,,0.00,0,weatherlink.com 1.10,2013-10-15 01:56:00,
2013-10-14 20:11:00,42.0,29.0,31.96,ENE,71,4.0,9.0,60,0.00,,,0.00,0,weatherlink.com 1.10,2013-10-15 02:11:00,
2013-10-14 20:26:00,42.1,29.0,31.96,ENE,74,1.0,5.0,59,0.00,,,0.00,0,weatherlink.com 1.10,2013-10-15 02:26:00,
2013-10-14 20:41:00,42.5,28.0,31.97,ENE,74,2.0,5.0,57,0.00,,,0.00,0,weatherlink.com 1.10,2013-10-15 02:41:00,
2013-10-14 20:56:00,42.5,28.0,31.97,East,80,3.0,4.0,56,0.00,,,0.00,0,weatherlink.com 1.10,2013-10-15 02:56:00,
2013-10-14 21:11:00,42.3,28.0,31.98,East,86,3.0,5.0,57,0.00,,,0.00,0,weatherlink.com 1.10,2013-10-15 03:11:00,
2013-10-14 21:26:00,42.3,28.0,31.98,ENE,74,3.0,7.0,58,0.00,,,0.00,0,weatherlink.com 1.10,2013-10-15 03:26:00,
2013-10-14 21:41:00,42.2,29.0,31.98,ENE,67,3.0,5.0,60,0.00,,,0.00,0,weatherlink.com 1.10,2013-10-15 03:41:00,
2013-10-14 21:56:00,42.2,29.0,31.98,NE,53,0.0,4.0,59,0.00,,,0.00,0,weatherlink.com 1.10,2013-10-15 03:56:00,
2013-10-14 22:11:00,41.8,29.0,31.99,NE,53,0.0,2.0,61,0.00,,,0.00,0,weatherlink.com 1.10,2013-10-15 04:11:00,
2013-10-14 22:26:00,40.9,29.0,31.99,NE,34,2.0,5.0,64,0.00,,,0.00,0,weatherlink.com 1.10,2013-10-15 04:26:00,
2013-10-14 22:41:00,40.0,29.0,31.99,NE,34,1.0,2.0,65,0.00,,,0.00,0,weatherlink.com 1.10,2013-10-15 04:41:00,
2013-10-14 22:56:00,39.4,29.0,32.00,NE,34,0.0,3.0,66,0.00,,,0.00,0,weatherlink.com 1.10,2013-10-15 04:56:00,
2013-10-14 23:11:00,39.7,28.0,32.00,NE,34,0.0,3.0,63,0.00,,,0.00,0,weatherlink.com 1.10,2013-10-15 05:11:00,
2013-10-14 23:26:00,40.2,28.0,32.00,NE,34,0.0,2.0,61,0.00,,,0.00,0,weatherlink.com 1.10,2013-10-15 05:26:00,
2013-10-14 23:41:00,39.9,29.0,32.01,NE,34,0.0,2.0,64,0.00,,,0.00,0,weatherlink.com 1.10,2013-10-15 05:41:00,
2013-10-14 23:56:00,39.5,28.0,32.01,NE,34,1.0,2.0,63,0.00,,,0.00,0,weatherlink.com 1.10,2013-10-15 05:56:00,